createdAt,value
2017-12-25T00:01:45.614Z,27.52
2017-12-25T00:04:16.056Z,26.33
2017-12-25T00:06:46.561Z,29.67
2017-12-25T00:09:16.976Z,28.17
2017-12-25T00:11:47.560Z,29.83
2017-12-25T00:14:17.677Z,33.95
2017-12-25T00:16:48.018Z,30.02
2017-12-25T00:19:18.039Z,37.27
2017-12-25T00:21:48.176Z,40.12
2017-12-25T00:24:19.524Z,38.05
2017-12-25T00:26:49.671Z,37.30
2017-12-25T00:29:19.752Z,33.92
2017-12-25T00:31:51.242Z,33.43
2017-12-25T00:34:21.330Z,29.20
2017-12-25T00:36:52.142Z,33.70
2017-12-25T00:39:23.052Z,29.10
2017-12-25T00:41:53.215Z,30.00
2017-12-25T00:44:24.198Z,27.00
2017-12-25T00:46:54.343Z,33.17
2017-12-25T00:49:24.540Z,28.93
2017-12-25T00:51:54.706Z,29.42
2017-12-25T00:54:25.539Z,34.45
2017-12-25T00:56:56.569Z,30.33
2017-12-25T00:59:27.639Z,32.00
2017-12-25T01:01:58.843Z,32.22
2017-12-25T01:04:29.129Z,40.45
2017-12-25T01:06:59.894Z,30.58
2017-12-25T01:09:30.267Z,31.23
2017-12-25T01:12:00.722Z,30.85
2017-12-25T01:14:30.795Z,31.35
2017-12-25T01:17:00.883Z,30.52
2017-12-25T01:19:31.430Z,28.80
2017-12-25T01:22:02.126Z,26.92
2017-12-25T01:24:33.034Z,31.33
2017-12-25T01:27:03.549Z,35.63
2017-12-25T01:29:33.647Z,32.47
2017-12-25T01:32:03.949Z,42.73
2017-12-25T01:34:34.849Z,31.07
2017-12-25T01:37:05.139Z,31.40
2017-12-25T01:39:35.478Z,37.45
2017-12-25T01:42:06.420Z,30.30
2017-12-25T01:44:36.514Z,31.17
2017-12-25T01:47:08.199Z,42.05
2017-12-25T01:49:38.819Z,38.53
2017-12-25T01:52:09.395Z,41.72
2017-12-25T01:54:40.487Z,54.77
2017-12-25T01:57:12.024Z,56.97
2017-12-25T01:59:44.370Z,49.57
2017-12-25T02:02:14.803Z,62.60
2017-12-25T02:04:46.879Z,62.93
2017-12-25T02:07:27.820Z,44.83
2017-12-25T02:09:58.145Z,47.95
2017-12-25T02:12:28.466Z,47.03
2017-12-25T02:14:58.988Z,42.72
2017-12-25T02:17:31.537Z,51.17
2017-12-25T02:20:02.494Z,40.00
2017-12-25T02:22:33.055Z,57.20
2017-12-25T02:25:04.006Z,42.55
2017-12-25T02:27:34.505Z,41.80
2017-12-25T02:30:04.671Z,38.30
2017-12-25T02:32:34.754Z,34.17
2017-12-25T02:35:05.171Z,35.72
2017-12-25T02:37:35.446Z,34.80
2017-12-25T02:40:05.858Z,39.35
2017-12-25T02:42:36.522Z,31.23
2017-12-25T02:45:06.665Z,31.95
2017-12-25T02:47:36.840Z,34.17
2017-12-25T02:50:09.123Z,26.27
2017-12-25T02:52:39.465Z,50.92
2017-12-25T02:55:10.542Z,42.15
2017-12-25T02:57:41.170Z,48.47
2017-12-25T03:00:11.267Z,42.20
2017-12-25T03:02:41.365Z,52.67
2017-12-25T03:05:11.795Z,59.72
2017-12-25T03:07:42.083Z,35.10
2017-12-25T03:10:12.223Z,44.30
2017-12-25T03:12:43.586Z,63.63
2017-12-25T03:15:13.605Z,45.92
2017-12-25T03:17:44.441Z,58.78
2017-12-25T03:20:15.136Z,80.60
2017-12-25T03:24:11.142Z,98.40
2017-12-25T03:26:42.464Z,63.05
2017-12-25T03:29:12.955Z,83.72
2017-12-25T03:31:47.793Z,45.10
2017-12-25T03:35:42.457Z,53.07
2017-12-25T03:38:14.637Z,38.85
2017-12-25T03:40:46.279Z,74.87
2017-12-25T03:43:16.841Z,53.40
2017-12-25T03:45:47.736Z,38.47
2017-12-25T03:48:18.356Z,37.10
2017-12-25T03:50:49.054Z,39.35
2017-12-25T03:53:20.431Z,42.15
2017-12-25T03:55:50.816Z,43.85
2017-12-25T03:58:21.150Z,32.03
2017-12-25T04:00:52.325Z,40.50
2017-12-25T04:03:23.092Z,35.58
2017-12-25T04:05:54.427Z,30.80
2017-12-25T04:08:25.424Z,30.27
2017-12-25T04:10:56.101Z,30.45
2017-12-25T04:13:27.482Z,28.08
2017-12-25T04:15:59.057Z,28.67
2017-12-25T04:18:30.656Z,29.52
2017-12-25T04:21:01.411Z,29.92
2017-12-25T04:23:32.464Z,39.33
2017-12-25T04:26:02.712Z,42.22
2017-12-25T04:28:34.237Z,60.60
2017-12-25T04:31:04.552Z,71.50
2017-12-25T04:33:34.797Z,35.50
2017-12-25T04:36:05.950Z,45.85
2017-12-25T04:38:36.566Z,39.78
2017-12-25T04:41:07.382Z,57.22
2017-12-25T04:43:39.522Z,65.72
2017-12-25T04:46:10.442Z,69.40
2017-12-25T04:48:41.434Z,61.33
2017-12-25T04:51:13.345Z,83.22
2017-12-25T04:53:44.139Z,44.17
2017-12-25T04:56:15.486Z,67.97
2017-12-25T04:58:46.582Z,66.15
2017-12-25T05:01:17.211Z,57.20
2017-12-25T05:03:47.830Z,78.32
2017-12-25T05:06:18.459Z,89.40
2017-12-25T05:08:50.281Z,47.45
2017-12-25T05:11:21.390Z,56.67
2017-12-25T05:13:52.012Z,50.60
2017-12-25T05:16:22.624Z,50.17
2017-12-25T05:18:53.010Z,49.22
2017-12-25T05:21:23.362Z,72.85
2017-12-25T05:23:54.412Z,48.15
2017-12-25T05:26:25.401Z,88.60
2017-12-25T05:28:56.025Z,59.08
2017-12-25T05:31:28.173Z,45.72
2017-12-25T05:33:58.916Z,67.40
2017-12-25T05:36:29.503Z,72.43
2017-12-25T05:39:00.950Z,70.90
2017-12-25T05:41:31.730Z,41.28
2017-12-25T05:44:02.421Z,49.00
2017-12-25T05:46:33.349Z,77.63
2017-12-25T05:49:04.269Z,75.03
2017-12-25T05:51:34.548Z,88.43
2017-12-25T05:54:04.784Z,192.87
2017-12-25T05:56:35.548Z,139.30
2017-12-25T05:59:06.469Z,142.00
2017-12-25T06:01:37.876Z,122.00
2017-12-25T06:04:08.263Z,71.47
2017-12-25T06:06:39.346Z,124.57
2017-12-25T06:09:10.474Z,85.55
2017-12-25T06:11:44.587Z,82.28
2017-12-25T06:14:15.719Z,55.35
2017-12-25T06:16:46.424Z,63.77
2017-12-25T06:19:16.708Z,58.15
2017-12-25T06:21:47.305Z,50.65
2017-12-25T06:24:18.628Z,52.62
2017-12-25T06:26:49.983Z,50.97
2017-12-25T06:29:20.729Z,59.28
2017-12-25T06:31:52.287Z,80.82
2017-12-25T06:34:23.939Z,121.17
2017-12-25T06:36:56.074Z,90.25
2017-12-25T06:39:27.580Z,56.33
2017-12-25T06:41:58.328Z,45.03
2017-12-25T06:44:29.968Z,57.03
2017-12-25T06:47:00.779Z,49.30
2017-12-25T06:49:31.192Z,49.50
2017-12-25T06:52:02.395Z,48.08
2017-12-25T06:54:37.829Z,41.97
2017-12-25T06:57:10.301Z,37.83
2017-12-25T06:59:46.845Z,39.50
2017-12-25T07:03:22.502Z,43.97
2017-12-25T07:05:54.519Z,57.17
2017-12-25T07:08:25.695Z,51.00
2017-12-25T07:11:08.357Z,54.03
2017-12-25T07:13:39.949Z,43.92
2017-12-25T07:16:11.078Z,46.35
2017-12-25T07:18:41.829Z,41.17
2017-12-25T07:21:13.035Z,44.00
2017-12-25T07:23:43.645Z,36.40
2017-12-25T07:26:17.671Z,32.05
2017-12-25T07:28:49.143Z,43.38
2017-12-25T07:31:19.740Z,45.85
2017-12-25T07:33:51.602Z,40.83
2017-12-25T07:36:22.349Z,41.67
2017-12-25T07:38:52.862Z,51.25
2017-12-25T07:41:23.995Z,46.58
2017-12-25T07:43:54.884Z,44.72
2017-12-25T07:46:50.298Z,39.80
2017-12-25T07:49:21.825Z,32.55
2017-12-25T07:51:52.849Z,37.40
2017-12-25T07:54:23.508Z,31.87
2017-12-25T07:56:55.737Z,36.07
2017-12-25T07:59:39.361Z,37.93
2017-12-25T08:02:11.256Z,34.05
2017-12-25T08:04:42.847Z,37.33
2017-12-25T08:07:14.306Z,35.50
2017-12-25T08:09:45.836Z,39.83
2017-12-25T08:12:17.081Z,35.88
2017-12-25T08:28:39.809Z,36.28
2017-12-25T08:31:12.537Z,33.65
2017-12-25T08:33:43.170Z,36.15
2017-12-25T08:36:18.952Z,33.30
2017-12-25T08:38:52.132Z,30.50
2017-12-25T08:41:22.581Z,36.50
2017-12-25T08:45:50.000Z,29.53
2017-12-25T08:48:20.610Z,25.67
2017-12-25T08:50:51.413Z,27.20
2017-12-25T08:53:22.535Z,25.02
2017-12-25T08:55:54.012Z,26.65
2017-12-25T08:58:25.271Z,28.35
2017-12-25T09:00:56.721Z,27.67
2017-12-25T09:03:27.216Z,26.37
2017-12-25T09:05:58.582Z,23.90
2017-12-25T09:08:29.322Z,34.45
2017-12-25T09:10:59.819Z,32.47
2017-12-25T09:13:30.922Z,29.90
2017-12-25T09:16:01.678Z,29.08
2017-12-25T09:18:32.134Z,29.00
2017-12-25T09:21:03.233Z,26.37
2017-12-25T09:36:29.927Z,23.10
2017-12-25T09:39:02.284Z,23.35
2017-12-25T09:41:47.202Z,20.02
2017-12-25T09:44:18.753Z,28.90
2017-12-25T09:46:50.042Z,30.27
2017-12-25T09:49:21.207Z,20.20
2017-12-25T09:51:52.695Z,24.27
2017-12-25T09:54:23.670Z,15.75
2017-12-25T09:56:54.574Z,21.93
2017-12-25T09:59:25.769Z,17.95
2017-12-25T10:01:57.085Z,19.30
2017-12-25T10:04:30.963Z,20.53
2017-12-25T10:09:52.797Z,18.00
2017-12-25T10:12:23.408Z,18.37
2017-12-25T10:14:54.097Z,18.75
2017-12-25T10:17:25.782Z,5.03
2017-12-25T10:19:57.172Z,11.75
2017-12-25T10:22:30.707Z,14.52
2017-12-25T10:25:01.360Z,14.27
2017-12-25T10:27:40.233Z,15.30
2017-12-25T10:30:12.396Z,13.85
2017-12-25T10:32:44.432Z,14.85
2017-12-25T10:35:14.729Z,14.30
2017-12-25T10:37:47.012Z,12.60
2017-12-25T10:40:18.972Z,12.90
2017-12-25T10:42:49.628Z,11.30
2017-12-25T10:45:20.672Z,9.23
2017-12-25T10:47:52.975Z,6.65
2017-12-25T10:50:29.802Z,8.50
2017-12-25T10:53:01.712Z,14.05
2017-12-25T10:55:33.091Z,13.27
2017-12-25T10:58:03.586Z,14.20
2017-12-25T11:00:39.013Z,12.90
2017-12-25T11:03:10.749Z,14.63
2017-12-25T11:05:41.826Z,14.77
2017-12-25T11:08:13.294Z,15.20
2017-12-25T11:10:43.619Z,13.20
2017-12-25T11:13:14.527Z,14.40
2017-12-25T11:15:46.223Z,16.30
2017-12-25T11:18:17.233Z,15.98
2017-12-25T11:21:24.019Z,14.93
2017-12-25T11:23:54.843Z,18.53
2017-12-25T11:26:26.613Z,17.02
2017-12-25T11:28:58.949Z,13.48
2017-12-25T11:31:29.755Z,17.65
2017-12-25T11:34:16.657Z,16.30
2017-12-25T11:36:48.420Z,17.92
2017-12-25T11:39:20.067Z,17.17
2017-12-25T11:41:53.821Z,15.73
2017-12-25T11:44:27.266Z,18.62
2017-12-25T11:46:58.711Z,16.65
2017-12-25T11:49:41.818Z,17.23
2017-12-25T11:52:19.154Z,18.67
2017-12-25T11:54:50.304Z,19.02
2017-12-25T11:57:20.583Z,19.95
2017-12-25T11:59:51.263Z,21.25
2017-12-25T12:02:21.856Z,20.45
2017-12-25T12:04:53.158Z,19.48
2017-12-25T12:07:23.727Z,18.52
2017-12-25T12:09:56.368Z,18.60
2017-12-25T12:12:27.959Z,18.62
2017-12-25T12:15:01.148Z,20.70
2017-12-25T12:17:35.040Z,19.73
2017-12-25T12:20:06.212Z,20.73
2017-12-25T12:22:38.707Z,19.67
2017-12-25T12:25:09.432Z,21.00
2017-12-25T12:27:39.657Z,21.03
2017-12-25T12:30:12.033Z,20.35
2017-12-25T12:32:47.628Z,21.20
2017-12-25T12:35:19.664Z,20.77
2017-12-25T12:37:53.959Z,22.42
2017-12-25T12:40:24.880Z,21.15
2017-12-25T12:42:57.241Z,21.50
2017-12-25T12:45:33.041Z,19.80
2017-12-25T12:48:03.886Z,22.48
2017-12-25T12:50:37.779Z,26.70
2017-12-25T12:53:08.418Z,21.87
2017-12-25T12:55:39.863Z,20.62
2017-12-25T12:58:10.512Z,21.85
2017-12-25T13:00:42.026Z,18.77
2017-12-25T13:03:18.867Z,22.75
2017-12-25T13:05:50.204Z,21.00
2017-12-25T13:08:22.858Z,22.70
2017-12-25T13:10:53.527Z,24.03
2017-12-25T13:13:23.741Z,24.48
2017-12-25T13:15:54.017Z,29.83
2017-12-25T13:18:25.613Z,28.33
2017-12-25T13:20:56.269Z,31.37
2017-12-25T13:23:26.529Z,30.53
2017-12-25T13:25:57.618Z,35.30
2017-12-25T13:28:28.843Z,27.45
2017-12-25T13:31:02.716Z,28.87
2017-12-25T13:33:36.279Z,29.02
2017-12-25T13:36:06.669Z,27.27
2017-12-25T13:38:43.842Z,26.70
2017-12-25T13:41:15.654Z,33.58
2017-12-25T13:43:46.397Z,34.37
2017-12-25T13:46:16.733Z,30.92
2017-12-25T13:48:49.324Z,30.60
2017-12-25T13:51:21.446Z,33.97
2017-12-25T13:53:52.300Z,29.45
2017-12-25T13:56:23.336Z,39.30
2017-12-25T13:58:53.637Z,33.50
2017-12-25T14:01:23.932Z,33.70
2017-12-25T14:03:58.421Z,33.40
2017-12-25T14:06:30.277Z,33.95
2017-12-25T14:09:01.311Z,31.27
2017-12-25T14:11:32.316Z,42.92
2017-12-25T14:14:03.506Z,62.03
2017-12-25T14:16:33.927Z,56.45
2017-12-25T14:19:04.328Z,62.47
2017-12-25T14:21:35.457Z,44.42
2017-12-25T14:24:09.297Z,78.43
2017-12-25T14:26:39.979Z,75.93
2017-12-25T14:29:10.683Z,63.60
2017-12-25T14:31:41.020Z,92.12
2017-12-25T14:34:12.527Z,71.93
2017-12-25T14:36:43.441Z,51.10
2017-12-25T14:39:17.771Z,55.33
2017-12-25T14:41:49.574Z,124.17
2017-12-25T14:44:20.736Z,95.35
2017-12-25T14:46:51.101Z,70.50
2017-12-25T14:49:22.009Z,44.88
2017-12-25T14:51:52.894Z,71.78
2017-12-25T14:54:23.561Z,75.27
2017-12-25T14:56:58.185Z,107.82
2017-12-25T14:59:28.542Z,50.88
2017-12-25T15:01:59.223Z,46.35
2017-12-25T15:04:30.285Z,50.65
2017-12-25T15:07:01.239Z,74.90
2017-12-25T15:09:40.367Z,72.37
2017-12-25T15:12:11.547Z,151.60
2017-12-25T15:14:42.637Z,76.80
2017-12-25T15:17:14.102Z,92.25
2017-12-25T15:19:44.950Z,83.78
2017-12-25T15:22:15.277Z,109.63
2017-12-25T15:25:48.572Z,175.10
2017-12-25T15:28:18.850Z,72.95
2017-12-25T15:30:50.200Z,79.95
2017-12-25T15:33:22.216Z,70.12
2017-12-25T15:35:52.598Z,73.15
2017-12-25T15:38:29.233Z,53.80
2017-12-25T15:44:24.730Z,91.63
2017-12-25T15:46:56.972Z,58.80
2017-12-25T15:49:27.725Z,80.87
2017-12-25T15:51:58.072Z,139.00
2017-12-25T15:54:29.025Z,50.12
2017-12-25T15:57:00.680Z,49.15
2017-12-25T15:59:31.364Z,68.47
2017-12-25T16:02:03.052Z,48.97
2017-12-25T16:04:33.344Z,76.00
2017-12-25T16:07:04.082Z,122.30
2017-12-25T16:09:35.074Z,85.10
2017-12-25T16:12:06.083Z,53.78
2017-12-25T16:14:37.172Z,73.68
2017-12-25T16:17:07.397Z,55.80
2017-12-25T16:19:45.065Z,65.22
2017-12-25T16:22:17.274Z,53.38
2017-12-25T16:24:48.348Z,59.10
2017-12-25T16:27:18.983Z,58.87
2017-12-25T16:29:49.908Z,47.20
2017-12-25T16:32:22.661Z,43.77
2017-12-25T16:34:53.533Z,61.47
2017-12-25T16:37:24.670Z,60.75
2017-12-25T16:39:55.438Z,48.67
2017-12-25T16:42:26.107Z,40.83
2017-12-25T16:45:06.386Z,34.03
2017-12-25T16:47:38.534Z,46.97
2017-12-25T16:50:09.375Z,53.45
2017-12-25T16:52:40.000Z,45.00
2017-12-25T16:55:10.688Z,56.33
2017-12-25T16:57:41.250Z,48.15
2017-12-25T17:00:14.763Z,33.10
2017-12-25T17:02:48.115Z,28.83
2017-12-25T17:05:19.330Z,36.33
2017-12-25T17:07:51.380Z,31.12
2017-12-25T17:10:22.052Z,36.10
2017-12-25T17:12:53.249Z,29.05
2017-12-25T17:15:24.057Z,31.83
2017-12-25T17:17:55.603Z,31.30
2017-12-25T17:20:26.929Z,33.35
2017-12-25T17:22:57.792Z,47.38
2017-12-25T17:25:29.380Z,33.83
2017-12-25T17:28:00.777Z,37.42
2017-12-25T17:30:31.427Z,35.10
2017-12-25T17:33:23.810Z,30.10
2017-12-25T17:35:57.430Z,27.02
2017-12-25T17:38:29.872Z,26.87
2017-12-25T17:41:00.579Z,27.58
2017-12-25T17:43:31.308Z,26.35
2017-12-25T17:46:02.137Z,24.23
2017-12-25T17:48:32.711Z,24.30
2017-12-25T17:51:03.933Z,26.17
2017-12-25T17:53:37.062Z,26.90
2017-12-25T17:56:08.728Z,24.00
2017-12-25T17:58:40.733Z,27.15
2017-12-25T18:01:12.096Z,19.67
2017-12-25T18:03:43.128Z,22.70
2017-12-25T18:06:13.963Z,18.30
2017-12-25T18:08:51.484Z,18.97
2017-12-25T18:11:22.469Z,25.50
2017-12-25T18:13:52.762Z,20.12
2017-12-25T18:16:23.769Z,23.08
2017-12-25T18:18:54.732Z,20.70
2017-12-25T18:21:25.872Z,20.67
2017-12-25T18:23:57.440Z,12.95
2017-12-25T18:26:29.039Z,9.57
2017-12-25T18:28:59.823Z,14.00
2017-12-25T18:31:30.540Z,5.00
2017-12-25T18:34:05.357Z,5.10
2017-12-25T18:36:36.650Z,4.60
2017-12-25T18:39:07.863Z,5.35
2017-12-25T18:41:38.710Z,6.53
2017-12-25T18:44:10.049Z,4.75
2017-12-25T18:46:41.566Z,8.18
2017-12-25T18:49:12.789Z,8.52
2017-12-25T18:51:43.236Z,8.52
2017-12-25T18:54:13.818Z,6.65
2017-12-25T18:56:54.904Z,11.63
2017-12-25T18:59:26.773Z,7.12
2017-12-25T19:02:01.553Z,4.10
2017-12-25T19:04:36.568Z,8.25
2017-12-25T19:08:21.222Z,8.97
2017-12-25T19:10:52.558Z,4.93
2017-12-25T19:13:23.667Z,6.28
2017-12-25T19:15:54.557Z,4.30
2017-12-25T19:18:32.108Z,5.97
2017-12-25T19:21:04.302Z,4.93
2017-12-25T19:23:34.790Z,3.40
2017-12-25T19:26:05.246Z,4.20
2017-12-25T19:28:36.018Z,4.40
2017-12-25T19:31:06.487Z,2.20
2017-12-25T19:33:37.520Z,5.00
2017-12-25T19:36:14.109Z,5.82
2017-12-25T19:38:45.644Z,5.20
2017-12-25T19:41:22.638Z,3.20
2017-12-25T19:43:53.276Z,3.65
2017-12-25T19:46:24.714Z,3.00
2017-12-25T19:48:55.724Z,4.47
2017-12-25T19:51:26.518Z,3.35
2017-12-25T19:53:57.651Z,3.60
2017-12-25T19:56:28.647Z,6.22
2017-12-25T19:58:59.899Z,4.57
2017-12-25T20:01:31.435Z,3.72
2017-12-25T20:04:01.935Z,3.50
2017-12-25T20:06:32.609Z,3.70
2017-12-25T20:09:03.684Z,5.20
2017-12-25T20:11:36.312Z,3.92
2017-12-25T20:14:08.035Z,2.80
2017-12-25T20:16:53.959Z,2.90
2017-12-25T20:19:26.900Z,4.00
2017-12-25T20:21:57.488Z,4.87
2017-12-25T20:24:28.839Z,4.53
2017-12-25T20:26:59.953Z,3.53
2017-12-25T20:29:31.049Z,7.22
2017-12-25T20:32:13.856Z,7.15
2017-12-25T20:34:45.863Z,6.03
2017-12-25T20:37:18.255Z,4.30
2017-12-25T20:39:49.411Z,4.00
2017-12-25T20:42:20.207Z,6.45
2017-12-25T20:44:55.099Z,4.45
2017-12-25T20:47:38.899Z,6.37
2017-12-25T20:50:11.731Z,6.57
2017-12-25T20:52:42.074Z,9.88
2017-12-25T20:55:12.467Z,8.48
2017-12-25T20:57:43.412Z,4.95
2017-12-25T21:00:14.026Z,4.25
2017-12-25T21:02:44.762Z,4.90
2017-12-25T21:05:16.251Z,5.23
2017-12-25T21:07:48.108Z,5.77
2017-12-25T21:10:19.674Z,4.68
2017-12-25T21:12:50.003Z,5.70
2017-12-25T21:15:20.802Z,8.43
2017-12-25T21:17:51.773Z,4.75
2017-12-25T21:20:38.358Z,6.43
2017-12-25T21:23:09.374Z,4.37
2017-12-25T21:25:40.860Z,2.62
2017-12-25T21:28:11.119Z,3.30
2017-12-25T21:30:43.770Z,3.40
2017-12-25T21:33:16.753Z,3.00
2017-12-25T21:35:47.668Z,3.17
2017-12-25T21:38:18.764Z,2.90
2017-12-25T21:41:06.061Z,4.97
2017-12-25T21:43:36.752Z,5.07
2017-12-25T21:46:08.152Z,3.67
2017-12-25T21:48:39.385Z,5.03
2017-12-25T21:51:09.994Z,4.70
2017-12-25T21:53:41.066Z,4.50
2017-12-25T21:56:11.656Z,3.00
2017-12-25T21:58:42.289Z,3.08
2017-12-25T22:01:12.728Z,2.90
2017-12-25T22:03:43.332Z,3.22
2017-12-25T22:06:14.050Z,2.10
2017-12-25T22:08:45.447Z,3.25
2017-12-25T22:11:16.660Z,3.10
2017-12-25T22:13:47.754Z,2.20
2017-12-25T22:16:20.882Z,2.70
2017-12-25T22:18:52.991Z,2.60
2017-12-25T22:21:51.139Z,2.53
2017-12-25T22:24:22.674Z,1.87
2017-12-25T22:26:54.687Z,3.62
2017-12-25T22:29:25.892Z,2.67
2017-12-25T22:31:56.828Z,4.18
2017-12-25T22:34:28.694Z,2.87
2017-12-25T22:37:00.098Z,3.75
2017-12-25T22:39:30.819Z,3.28
2017-12-25T22:42:01.688Z,3.67
2017-12-25T22:44:32.532Z,2.00
2017-12-25T22:47:04.919Z,4.20
2017-12-25T22:49:35.834Z,2.43
2017-12-25T22:52:06.472Z,3.45
2017-12-25T22:54:36.974Z,8.25
2017-12-25T22:57:07.549Z,8.20
2017-12-25T22:59:38.447Z,10.35
2017-12-25T23:02:10.021Z,12.65
2017-12-25T23:04:41.072Z,14.48
2017-12-25T23:07:12.191Z,11.12
2017-12-25T23:09:43.640Z,10.38
2017-12-25T23:12:14.316Z,11.47
2017-12-25T23:14:46.252Z,13.02
2017-12-25T23:17:16.908Z,11.50
2017-12-25T23:19:49.557Z,10.10
2017-12-25T23:22:21.279Z,13.83
2017-12-25T23:24:52.200Z,13.45
2017-12-25T23:27:23.410Z,15.15
2017-12-25T23:29:54.620Z,13.77
2017-12-25T23:32:25.844Z,12.93
2017-12-25T23:34:56.658Z,13.77
2017-12-25T23:37:28.100Z,13.25
2017-12-25T23:39:58.709Z,11.57
2017-12-25T23:42:32.008Z,12.13
2017-12-25T23:45:02.729Z,12.60
2017-12-25T23:47:33.683Z,10.75
2017-12-25T23:50:04.220Z,12.70
2017-12-25T23:52:34.887Z,12.50
2017-12-25T23:55:06.258Z,10.32
2017-12-25T23:57:37.056Z,6.12
